createdAt,value
2019-03-16T00:00:33.614Z,2.27
2019-03-16T00:03:40.342Z,2.10
2019-03-16T00:06:47.934Z,1.80
2019-03-16T00:09:54.563Z,2.00
2019-03-16T00:13:01.710Z,2.13
2019-03-16T00:16:08.374Z,1.70
2019-03-16T00:19:15.432Z,2.00
2019-03-16T00:22:21.843Z,1.60
2019-03-16T00:25:28.205Z,1.90
2019-03-16T00:28:35.771Z,1.67
2019-03-16T00:31:42.544Z,1.47
2019-03-16T00:34:49.492Z,1.50
2019-03-16T00:37:56.026Z,1.43
2019-03-16T00:41:02.761Z,1.97
2019-03-16T00:44:09.138Z,1.57
2019-03-16T00:47:15.824Z,1.37
2019-03-16T00:50:22.746Z,1.77
2019-03-16T00:53:29.592Z,1.90
2019-03-16T00:56:37.172Z,1.40
2019-03-16T00:59:43.583Z,1.20
2019-03-16T01:02:50.191Z,1.20
2019-03-16T01:05:56.588Z,1.37
2019-03-16T01:09:03.005Z,1.20
2019-03-16T01:12:10.682Z,1.07
2019-03-16T01:15:17.088Z,0.80
2019-03-16T01:18:24.022Z,1.90
2019-03-16T01:21:31.406Z,1.83
2019-03-16T01:24:38.139Z,1.40
2019-03-16T01:27:44.522Z,1.50
2019-03-16T01:30:51.323Z,1.50
2019-03-16T01:33:58.099Z,1.63
2019-03-16T01:37:04.920Z,1.20
2019-03-16T01:40:11.784Z,1.20
2019-03-16T01:43:18.340Z,1.67
2019-03-16T01:46:25.582Z,1.23
2019-03-16T01:49:32.070Z,1.10
2019-03-16T01:52:38.588Z,1.17
2019-03-16T01:55:46.306Z,1.43
2019-03-16T01:58:53.121Z,2.03
2019-03-16T02:01:59.714Z,1.40
2019-03-16T02:05:06.593Z,1.00
2019-03-16T02:08:13.745Z,1.73
2019-03-16T02:11:20.084Z,1.50
2019-03-16T02:14:26.486Z,1.20
2019-03-16T02:17:33.196Z,1.10
2019-03-16T02:20:39.957Z,1.87
2019-03-16T02:23:47.031Z,1.73
2019-03-16T02:26:53.378Z,1.40
2019-03-16T02:29:59.825Z,1.10
2019-03-16T02:33:13.340Z,1.53
2019-03-16T02:36:14.108Z,1.10
2019-03-16T02:39:20.768Z,1.43
2019-03-16T02:42:27.195Z,1.07
2019-03-16T02:45:33.753Z,1.40
2019-03-16T02:48:40.406Z,2.03
2019-03-16T02:51:46.626Z,1.20
2019-03-16T02:54:53.148Z,1.00
2019-03-16T02:57:59.576Z,1.20
2019-03-16T03:01:06.365Z,1.30
2019-03-16T03:04:13.003Z,1.27
2019-03-16T03:07:19.860Z,1.13
2019-03-16T03:10:26.454Z,1.57
2019-03-16T03:13:33.076Z,2.00
2019-03-16T03:16:39.957Z,2.00
2019-03-16T03:19:46.479Z,1.43
2019-03-16T03:22:52.977Z,1.50
2019-03-16T03:25:59.611Z,1.63
2019-03-16T03:29:06.254Z,1.43
2019-03-16T03:32:12.751Z,1.50
2019-03-16T03:35:19.450Z,1.20
2019-03-16T03:38:25.935Z,1.40
2019-03-16T03:41:33.307Z,1.30
2019-03-16T03:44:39.933Z,2.17
2019-03-16T03:47:46.604Z,1.57
2019-03-16T03:50:53.046Z,2.40
2019-03-16T03:53:59.532Z,1.13
2019-03-16T03:57:06.364Z,1.30
2019-03-16T04:00:13.582Z,1.23
2019-03-16T04:03:20.045Z,1.70
2019-03-16T04:06:26.788Z,1.77
2019-03-16T04:09:33.439Z,0.93
2019-03-16T04:12:40.533Z,1.10
2019-03-16T04:15:47.387Z,1.10
2019-03-16T04:18:54.183Z,1.37
2019-03-16T04:22:02.249Z,1.33
2019-03-16T04:25:09.111Z,1.43
2019-03-16T04:28:15.419Z,1.33
2019-03-16T04:31:22.401Z,1.30
2019-03-16T04:34:29.902Z,1.27
2019-03-16T04:37:37.931Z,1.83
2019-03-16T04:40:44.871Z,1.87
2019-03-16T04:43:51.884Z,1.40
2019-03-16T04:46:58.397Z,1.63
2019-03-16T04:50:05.243Z,1.43
2019-03-16T04:53:12.139Z,1.70
2019-03-16T04:56:19.079Z,1.27
2019-03-16T04:59:25.460Z,1.40
2019-03-16T05:02:32.400Z,1.30
2019-03-16T05:05:38.925Z,1.23
2019-03-16T05:08:45.487Z,1.00
2019-03-16T05:11:54.121Z,1.30
2019-03-16T05:15:00.717Z,1.23
2019-03-16T05:18:08.917Z,1.00
2019-03-16T05:21:17.076Z,1.13
2019-03-16T05:24:23.733Z,1.10
2019-03-16T05:27:30.221Z,0.70
2019-03-16T05:30:37.208Z,0.93
2019-03-16T05:33:43.916Z,1.10
2019-03-16T05:36:50.762Z,2.10
2019-03-16T05:39:58.038Z,0.70
2019-03-16T05:43:07.584Z,1.43
2019-03-16T05:46:14.514Z,0.97
2019-03-16T05:49:21.656Z,0.90
2019-03-16T05:52:28.412Z,1.07
2019-03-16T05:55:35.230Z,1.20
2019-03-16T05:58:41.810Z,1.07
2019-03-16T06:01:48.678Z,0.80
2019-03-16T06:04:55.406Z,0.80
2019-03-16T06:08:02.020Z,0.70
2019-03-16T06:11:08.570Z,1.03
2019-03-16T06:14:14.863Z,0.90
2019-03-16T06:17:21.348Z,1.07
2019-03-16T06:20:28.011Z,0.80
2019-03-16T06:23:34.555Z,1.10
2019-03-16T06:26:41.488Z,1.27
2019-03-16T06:29:49.133Z,1.10
2019-03-16T06:32:55.484Z,0.70
2019-03-16T06:36:03.919Z,0.63
2019-03-16T06:39:10.476Z,0.90
2019-03-16T06:42:17.094Z,0.87
2019-03-16T06:45:23.460Z,0.50
2019-03-16T06:48:30.189Z,0.80
2019-03-16T06:51:37.769Z,1.07
2019-03-16T06:54:44.198Z,0.70
2019-03-16T06:57:51.759Z,0.60
2019-03-16T07:00:58.430Z,1.13
2019-03-16T07:04:04.885Z,0.90
2019-03-16T07:07:11.469Z,1.23
2019-03-16T07:10:18.239Z,0.70
2019-03-16T07:13:25.138Z,0.50
2019-03-16T07:16:32.257Z,0.57
2019-03-16T07:19:39.243Z,0.83
2019-03-16T07:22:45.991Z,0.60
2019-03-16T07:25:53.295Z,0.63
2019-03-16T07:29:00.638Z,1.10
2019-03-16T07:32:07.269Z,1.00
2019-03-16T07:35:14.045Z,1.00
2019-03-16T07:38:22.855Z,0.67
2019-03-16T07:41:29.792Z,0.90
2019-03-16T07:44:36.488Z,1.17
2019-03-16T07:47:43.000Z,0.87
2019-03-16T07:50:50.321Z,0.67
2019-03-16T07:53:57.261Z,0.90
2019-03-16T07:57:04.433Z,0.80
2019-03-16T08:00:11.757Z,1.00
2019-03-16T08:03:18.627Z,0.60
2019-03-16T08:06:25.231Z,0.67
2019-03-16T08:09:34.066Z,0.80
2019-03-16T08:12:41.591Z,0.80
2019-03-16T08:15:48.406Z,0.67
2019-03-16T08:18:55.083Z,0.60
2019-03-16T08:22:02.538Z,0.80
2019-03-16T08:25:09.487Z,0.90
2019-03-16T08:28:16.253Z,0.53
2019-03-16T08:31:25.490Z,0.60
2019-03-16T08:34:31.895Z,1.00
2019-03-16T08:37:39.603Z,0.80
2019-03-16T08:40:46.603Z,0.93
2019-03-16T08:43:53.249Z,0.80
2019-03-16T08:46:59.976Z,0.77
2019-03-16T08:50:07.385Z,0.70
2019-03-16T08:53:14.184Z,0.60
2019-03-16T08:56:24.303Z,0.40
2019-03-16T08:59:31.714Z,0.40
2019-03-16T09:02:38.981Z,0.30
2019-03-16T09:05:45.834Z,0.30
2019-03-16T09:08:52.385Z,0.30
2019-03-16T09:11:59.536Z,0.40
2019-03-16T09:15:07.168Z,0.73
2019-03-16T09:18:13.741Z,1.40
2019-03-16T09:21:20.481Z,0.60
2019-03-16T09:24:27.037Z,0.50
2019-03-16T09:27:33.493Z,1.47
2019-03-16T09:30:40.391Z,0.80
2019-03-16T09:33:46.782Z,0.30
2019-03-16T09:36:53.378Z,0.20
2019-03-16T09:39:59.947Z,0.30
2019-03-16T09:43:06.366Z,0.20
2019-03-16T09:46:12.912Z,0.30
2019-03-16T09:49:19.374Z,0.20
2019-03-16T09:52:26.321Z,0.20
2019-03-16T09:55:35.216Z,0.20
2019-03-16T09:58:41.320Z,0.20
2019-03-16T10:01:48.374Z,0.20
2019-03-16T10:04:55.452Z,0.20
2019-03-16T10:08:02.148Z,0.20
2019-03-16T10:11:09.311Z,0.20
2019-03-16T10:14:15.964Z,0.20
2019-03-16T10:17:23.080Z,0.20
2019-03-16T10:20:29.874Z,0.20
2019-03-16T10:23:36.373Z,0.20
2019-03-16T10:26:44.783Z,0.20
2019-03-16T10:29:52.654Z,0.27
2019-03-16T10:32:59.130Z,0.20
2019-03-16T10:36:05.385Z,0.30
2019-03-16T10:39:12.871Z,0.20
2019-03-16T10:42:18.994Z,0.20
2019-03-16T10:45:25.975Z,0.30
2019-03-16T10:48:32.652Z,0.30
2019-03-16T10:51:40.150Z,0.30
2019-03-16T10:54:47.182Z,0.30
2019-03-16T10:57:53.921Z,0.30
2019-03-16T11:01:00.313Z,0.60
2019-03-16T11:04:06.902Z,0.30
2019-03-16T11:07:13.600Z,0.30
2019-03-16T11:10:21.957Z,0.30
2019-03-16T11:13:28.882Z,0.30
2019-03-16T11:16:36.527Z,0.40
2019-03-16T11:19:43.288Z,0.30
2019-03-16T11:22:50.024Z,0.30
2019-03-16T11:25:56.634Z,0.30
2019-03-16T11:29:08.840Z,0.40
2019-03-16T11:32:11.535Z,0.27
2019-03-16T11:35:18.509Z,0.30
2019-03-16T11:38:25.276Z,0.20
2019-03-16T11:41:33.422Z,0.43
2019-03-16T11:44:41.843Z,0.30
2019-03-16T11:47:48.715Z,0.30
2019-03-16T11:50:55.408Z,0.30
2019-03-16T11:54:02.215Z,0.20
2019-03-16T11:57:09.408Z,0.20
2019-03-16T12:00:15.856Z,0.30
2019-03-16T12:03:22.995Z,0.20
2019-03-16T12:06:29.476Z,0.30
2019-03-16T12:09:36.206Z,0.47
2019-03-16T12:12:43.589Z,0.50
2019-03-16T12:15:50.553Z,0.60
2019-03-16T12:18:57.380Z,0.50
2019-03-16T12:22:03.955Z,0.70
2019-03-16T12:25:10.892Z,0.60
2019-03-16T12:28:17.627Z,0.70
2019-03-16T12:31:25.602Z,0.70
2019-03-16T12:34:32.513Z,0.40
2019-03-16T12:37:39.789Z,0.60
2019-03-16T12:40:46.719Z,0.53
2019-03-16T12:43:54.398Z,1.67
2019-03-16T12:47:01.541Z,0.80
2019-03-16T12:50:08.277Z,0.77
2019-03-16T12:53:16.449Z,1.70
2019-03-16T12:56:23.562Z,1.40
2019-03-16T12:59:30.356Z,1.60
2019-03-16T13:02:36.983Z,1.33
2019-03-16T13:05:43.832Z,0.80
2019-03-16T13:08:52.510Z,0.80
2019-03-16T13:11:59.409Z,0.93
2019-03-16T13:15:07.058Z,0.63
2019-03-16T13:18:13.417Z,0.70
2019-03-16T13:21:20.483Z,0.53
2019-03-16T13:24:27.339Z,0.60
2019-03-16T13:27:33.763Z,0.60
2019-03-16T13:30:40.552Z,0.50
2019-03-16T13:33:47.174Z,0.73
2019-03-16T13:36:53.897Z,0.67
2019-03-16T13:40:00.909Z,0.50
2019-03-16T13:43:07.080Z,0.37
2019-03-16T13:46:13.440Z,0.40
2019-03-16T13:49:20.922Z,0.50
2019-03-16T13:52:27.903Z,0.63
2019-03-16T13:55:35.092Z,0.60
2019-03-16T13:58:41.941Z,0.30
2019-03-16T14:01:48.416Z,0.40
2019-03-16T14:04:59.597Z,0.40
2019-03-16T14:08:06.677Z,0.40
2019-03-16T14:11:14.294Z,0.70
2019-03-16T14:14:21.445Z,0.83
2019-03-16T14:17:28.557Z,0.60
2019-03-16T14:20:35.445Z,0.40
2019-03-16T14:23:42.755Z,0.57
2019-03-16T14:26:49.740Z,0.67
2019-03-16T14:29:56.718Z,0.70
2019-03-16T14:33:03.102Z,0.50
2019-03-16T14:36:10.021Z,0.40
2019-03-16T14:39:16.889Z,0.57
2019-03-16T14:42:23.378Z,0.40
2019-03-16T14:45:30.557Z,0.70
2019-03-16T14:48:37.710Z,0.60
2019-03-16T14:51:44.628Z,0.50
2019-03-16T14:54:51.298Z,0.57
2019-03-16T14:57:58.900Z,1.30
2019-03-16T15:01:05.605Z,0.77
2019-03-16T15:04:11.977Z,0.80
2019-03-16T15:07:18.202Z,0.60
2019-03-16T15:10:24.825Z,0.50
2019-03-16T15:13:35.181Z,0.50
2019-03-16T15:16:41.954Z,0.50
2019-03-16T15:19:49.125Z,0.53
2019-03-16T15:22:56.054Z,0.47
2019-03-16T15:26:02.538Z,0.57
2019-03-16T15:29:09.547Z,0.80
2019-03-16T15:32:16.100Z,0.50
2019-03-16T15:35:22.651Z,1.10
2019-03-16T15:38:32.764Z,0.50
2019-03-16T15:41:39.425Z,0.80
2019-03-16T15:44:46.476Z,0.50
2019-03-16T15:47:53.449Z,0.67
2019-03-16T15:51:00.317Z,0.60
2019-03-16T15:54:07.025Z,0.70
2019-03-16T15:57:13.752Z,0.37
2019-03-16T16:00:20.573Z,0.40
2019-03-16T16:03:27.105Z,0.80
2019-03-16T16:06:34.995Z,0.53
2019-03-16T16:09:41.857Z,0.67
2019-03-16T16:12:48.903Z,0.60
2019-03-16T16:15:56.727Z,0.50
2019-03-16T16:19:03.580Z,2.50
2019-03-16T16:22:11.411Z,0.60
2019-03-16T16:25:17.993Z,0.80
2019-03-16T16:28:24.934Z,1.07
2019-03-16T16:31:32.219Z,0.80
2019-03-16T16:34:38.668Z,1.13
2019-03-16T16:37:45.401Z,1.63
2019-03-16T16:40:52.426Z,2.80
2019-03-16T16:44:01.241Z,0.90
2019-03-16T16:47:10.994Z,1.30
2019-03-16T16:50:18.260Z,1.27
2019-03-16T16:53:28.539Z,1.20
2019-03-16T16:56:40.969Z,1.27
2019-03-16T16:59:50.546Z,1.20
2019-03-16T17:03:04.721Z,1.30
2019-03-16T17:06:14.156Z,1.20
2019-03-16T17:09:29.201Z,1.53
2019-03-16T17:12:39.616Z,2.03
2019-03-16T17:15:50.093Z,1.23
2019-03-16T17:18:58.195Z,1.60
2019-03-16T17:22:05.699Z,1.60
2019-03-16T17:25:15.378Z,1.20
2019-03-16T17:28:24.350Z,1.60
2019-03-16T17:31:42.095Z,1.80
2019-03-16T17:34:45.161Z,1.70
2019-03-16T17:37:55.600Z,1.80
2019-03-16T17:41:02.850Z,1.67
2019-03-16T17:44:16.668Z,1.60
2019-03-16T17:47:24.641Z,1.60
2019-03-16T17:50:33.102Z,2.10
2019-03-16T17:53:42.845Z,1.43
2019-03-16T17:56:53.455Z,1.90
2019-03-16T18:00:04.417Z,2.07
2019-03-16T18:03:14.458Z,1.93
2019-03-16T18:06:22.934Z,1.70
2019-03-16T18:09:30.774Z,1.87
2019-03-16T18:12:38.064Z,1.50
2019-03-16T18:15:44.692Z,1.70
2019-03-16T18:18:52.485Z,1.80
2019-03-16T18:22:02.936Z,3.00
2019-03-16T18:25:10.691Z,2.73
2019-03-16T18:28:20.213Z,2.47
2019-03-16T18:31:27.600Z,4.20
2019-03-16T18:34:33.960Z,2.70
2019-03-16T18:37:41.445Z,2.67
2019-03-16T18:40:48.032Z,1.60
2019-03-16T18:43:55.068Z,1.90
2019-03-16T18:47:02.171Z,1.90
2019-03-16T18:50:10.935Z,1.80
2019-03-16T18:53:17.566Z,2.40
2019-03-16T18:56:24.207Z,1.63
2019-03-16T18:59:30.786Z,2.90
2019-03-16T19:02:40.380Z,1.43
2019-03-16T19:05:49.367Z,1.53
2019-03-16T19:08:58.731Z,1.60
2019-03-16T19:12:09.825Z,1.50
2019-03-16T19:15:16.428Z,1.50
2019-03-16T19:18:22.734Z,1.93
2019-03-16T19:21:29.433Z,1.80
2019-03-16T19:24:35.843Z,1.57
2019-03-16T19:27:42.870Z,3.10
2019-03-16T19:30:49.659Z,2.67
2019-03-16T19:34:00.063Z,1.80
2019-03-16T19:37:06.586Z,1.80
2019-03-16T19:40:13.159Z,1.43
2019-03-16T19:43:23.024Z,1.57
2019-03-16T19:46:30.128Z,1.53
2019-03-16T19:49:36.888Z,1.67
2019-03-16T19:52:43.539Z,1.40
2019-03-16T19:55:50.836Z,1.23
2019-03-16T19:59:00.808Z,1.83
2019-03-16T20:02:06.995Z,2.20
2019-03-16T20:05:14.063Z,1.83
2019-03-16T20:08:21.276Z,1.70
2019-03-16T20:11:27.712Z,1.87
2019-03-16T20:14:36.164Z,2.00
2019-03-16T20:17:43.091Z,1.63
2019-03-16T20:20:50.693Z,2.10
2019-03-16T20:23:58.084Z,1.87
2019-03-16T20:27:07.106Z,1.70
2019-03-16T20:30:14.280Z,1.90
2019-03-16T20:33:20.793Z,2.30
2019-03-16T20:36:27.473Z,1.27
2019-03-16T20:39:34.355Z,1.70
2019-03-16T20:42:42.213Z,1.73
2019-03-16T20:45:49.003Z,1.53
2019-03-16T20:48:56.081Z,1.17
2019-03-16T20:52:03.211Z,1.07
2019-03-16T20:55:10.330Z,1.40
2019-03-16T20:58:18.516Z,1.73
2019-03-16T21:01:27.429Z,1.47
2019-03-16T21:04:36.701Z,1.73
2019-03-16T21:07:43.342Z,1.40
2019-03-16T21:10:50.416Z,1.43
2019-03-16T21:13:57.734Z,1.27
2019-03-16T21:17:04.621Z,1.17
2019-03-16T21:20:12.229Z,1.07
2019-03-16T21:23:19.247Z,1.20
2019-03-16T21:26:26.022Z,1.37
2019-03-16T21:29:32.795Z,1.33
2019-03-16T21:32:39.449Z,1.10
2019-03-16T21:35:46.474Z,1.20
2019-03-16T21:38:54.951Z,1.10
2019-03-16T21:42:01.552Z,1.10
2019-03-16T21:45:08.922Z,1.00
2019-03-16T21:48:16.917Z,1.00
2019-03-16T21:51:27.647Z,1.20
2019-03-16T21:54:36.050Z,1.10
2019-03-16T21:57:43.438Z,1.27
2019-03-16T22:00:50.047Z,0.90
2019-03-16T22:03:56.968Z,1.00
2019-03-16T22:07:03.602Z,1.20
2019-03-16T22:10:10.548Z,1.27
2019-03-16T22:13:17.539Z,1.20
2019-03-16T22:16:24.475Z,0.87
2019-03-16T22:19:32.015Z,1.30
2019-03-16T22:22:38.684Z,1.13
2019-03-16T22:25:45.591Z,1.17
2019-03-16T22:28:52.481Z,1.00
2019-03-16T22:31:59.700Z,1.27
2019-03-16T22:35:09.147Z,1.63
2019-03-16T22:38:18.130Z,1.20
2019-03-16T22:41:27.470Z,1.90
2019-03-16T22:44:34.460Z,1.43
2019-03-16T22:47:41.621Z,1.30
2019-03-16T22:50:48.346Z,1.60
2019-03-16T22:53:56.595Z,1.83
2019-03-16T22:57:03.435Z,1.50
2019-03-16T23:00:11.835Z,1.40
2019-03-16T23:03:20.447Z,1.47
2019-03-16T23:06:28.003Z,1.17
2019-03-16T23:09:34.746Z,1.60
2019-03-16T23:12:42.769Z,1.40
2019-03-16T23:15:49.462Z,1.40
2019-03-16T23:18:57.121Z,1.40
2019-03-16T23:22:03.791Z,1.50
2019-03-16T23:25:10.681Z,1.10
2019-03-16T23:28:17.344Z,1.20
2019-03-16T23:31:25.133Z,1.00
2019-03-16T23:34:31.835Z,1.07
2019-03-16T23:37:38.684Z,0.87
2019-03-16T23:40:46.702Z,1.27
2019-03-16T23:43:54.051Z,1.20
2019-03-16T23:47:00.609Z,0.70
2019-03-16T23:50:07.133Z,1.00
2019-03-16T23:53:13.761Z,1.27
2019-03-16T23:56:20.631Z,1.10
2019-03-16T23:59:27.383Z,1.00
